createdAt,value
2019-01-29T00:00:49.386Z,98304.92
2019-01-29T00:03:28.675Z,98311.22
2019-01-29T00:06:09.519Z,98310.60
2019-01-29T00:08:48.790Z,98314.30
2019-01-29T00:11:28.677Z,98317.86
2019-01-29T00:14:08.088Z,98327.89
2019-01-29T00:16:47.346Z,98323.78
2019-01-29T00:19:27.111Z,98333.40
2019-01-29T00:22:07.039Z,98333.03
2019-01-29T00:24:46.288Z,98347.86
2019-01-29T00:27:25.626Z,98343.83
2019-01-29T00:30:06.405Z,98350.88
2019-01-29T00:32:47.055Z,98350.80
2019-01-29T00:35:26.297Z,98364.42
2019-01-29T00:38:05.723Z,98364.69
2019-01-29T00:40:44.957Z,98363.00
2019-01-29T00:43:24.213Z,98370.42
2019-01-29T00:46:03.452Z,98378.21
2019-01-29T00:48:43.304Z,98379.80
2019-01-29T00:51:23.117Z,98390.85
2019-01-29T00:54:02.874Z,98393.22
2019-01-29T00:56:42.403Z,98394.87
2019-01-29T00:59:22.154Z,98398.18
2019-01-29T01:02:01.320Z,98403.81
2019-01-29T01:04:40.718Z,98414.22
2019-01-29T01:07:20.204Z,98424.16
2019-01-29T01:10:01.794Z,98421.55
2019-01-29T01:12:42.014Z,98436.39
2019-01-29T01:15:23.391Z,98436.11
2019-01-29T01:18:03.236Z,98445.08
2019-01-29T01:20:42.672Z,98447.15
2019-01-29T01:23:21.943Z,98445.73
2019-01-29T01:26:01.220Z,98453.05
2019-01-29T01:28:41.049Z,98459.36
2019-01-29T01:31:20.790Z,98458.36
2019-01-29T01:33:59.943Z,98476.04
2019-01-29T01:36:39.789Z,98477.80
2019-01-29T01:39:19.603Z,98481.73
2019-01-29T01:41:58.748Z,98484.47
2019-01-29T01:44:38.052Z,98483.03
2019-01-29T01:47:17.181Z,98492.47
2019-01-29T01:49:56.399Z,98502.47
2019-01-29T01:52:35.777Z,98504.97
2019-01-29T01:55:18.615Z,98515.58
2019-01-29T01:57:58.309Z,98512.48
2019-01-29T02:00:37.742Z,98518.44
2019-01-29T02:03:17.463Z,98511.27
2019-01-29T02:05:57.019Z,98518.36
2019-01-29T02:08:36.096Z,98521.80
2019-01-29T02:11:15.206Z,98524.14
2019-01-29T02:13:54.331Z,98537.91
2019-01-29T02:16:34.174Z,98559.77
2019-01-29T02:19:14.582Z,98537.19
2019-01-29T02:21:53.663Z,98551.52
2019-01-29T02:24:32.900Z,98543.03
2019-01-29T02:27:12.659Z,98555.23
2019-01-29T02:29:52.976Z,98554.05
2019-01-29T02:32:32.680Z,98557.02
2019-01-29T02:35:11.982Z,98558.79
2019-01-29T02:37:51.678Z,98568.26
2019-01-29T02:40:31.130Z,98566.06
2019-01-29T02:43:10.474Z,98567.83
2019-01-29T02:45:50.345Z,98573.51
2019-01-29T02:48:30.291Z,98582.07
2019-01-29T02:51:09.954Z,98584.13
2019-01-29T02:53:49.170Z,98586.24
2019-01-29T02:56:28.923Z,98597.55
2019-01-29T02:59:08.084Z,98604.02
2019-01-29T03:01:47.208Z,98603.91
2019-01-29T03:04:26.345Z,98603.89
2019-01-29T03:07:06.367Z,98606.03
2019-01-29T03:09:45.570Z,98610.21
2019-01-29T03:12:24.631Z,98620.50
2019-01-29T03:15:05.183Z,98629.49
2019-01-29T03:17:45.093Z,98636.41
2019-01-29T03:20:25.331Z,98645.83
2019-01-29T03:23:05.781Z,98651.87
2019-01-29T03:25:44.961Z,98660.95
2019-01-29T03:28:24.052Z,98665.58
2019-01-29T03:31:03.271Z,98665.05
2019-01-29T03:33:42.560Z,98672.25
2019-01-29T03:36:22.348Z,98671.92
2019-01-29T03:39:01.477Z,98682.01
2019-01-29T03:41:42.443Z,98682.03
2019-01-29T03:44:22.000Z,98685.83
2019-01-29T03:47:01.091Z,98700.13
2019-01-29T03:49:40.943Z,98709.52
2019-01-29T03:52:20.580Z,98703.67
2019-01-29T03:55:00.266Z,98720.31
2019-01-29T03:57:39.448Z,98723.87
2019-01-29T04:00:25.817Z,98723.82
2019-01-29T04:03:05.091Z,98726.63
2019-01-29T04:05:44.318Z,98726.90
2019-01-29T04:08:23.527Z,98732.62
2019-01-29T04:11:03.237Z,98734.28
2019-01-29T04:13:42.342Z,98742.63
2019-01-29T04:16:22.248Z,98749.63
2019-01-29T04:19:01.482Z,98759.34
2019-01-29T04:21:40.652Z,98764.64
2019-01-29T04:24:19.917Z,98769.86
2019-01-29T04:26:59.106Z,98771.72
2019-01-29T04:29:38.848Z,98779.70
2019-01-29T04:32:18.086Z,98784.11
2019-01-29T04:34:57.352Z,98788.09
2019-01-29T04:37:36.538Z,98790.69
2019-01-29T04:40:21.035Z,98794.00
2019-01-29T04:43:00.398Z,98803.75
2019-01-29T04:45:40.216Z,98804.78
2019-01-29T04:48:19.850Z,98809.05
2019-01-29T04:50:59.623Z,98807.92
2019-01-29T04:53:38.798Z,98811.94
2019-01-29T04:56:18.524Z,98815.00
2019-01-29T04:58:57.716Z,98814.09
2019-01-29T05:01:37.500Z,98820.15
2019-01-29T05:04:17.313Z,98823.33
2019-01-29T05:06:56.517Z,98821.45
2019-01-29T05:09:36.349Z,98823.02
2019-01-29T05:12:16.035Z,98823.91
2019-01-29T05:14:55.794Z,98825.94
2019-01-29T05:17:34.881Z,98828.42
2019-01-29T05:20:19.045Z,98826.27
2019-01-29T05:22:59.056Z,98837.45
2019-01-29T05:25:38.317Z,98838.34
2019-01-29T05:28:17.582Z,98835.79
2019-01-29T05:30:57.406Z,98847.17
2019-01-29T05:33:36.597Z,98854.38
2019-01-29T05:36:15.757Z,98847.80
2019-01-29T05:38:54.842Z,98852.78
2019-01-29T05:41:33.927Z,98855.70
2019-01-29T05:44:32.355Z,98858.58
2019-01-29T05:47:12.528Z,98864.20
2019-01-29T05:49:51.862Z,98867.36
2019-01-29T05:52:31.196Z,98871.65
2019-01-29T05:55:22.227Z,98878.83
2019-01-29T05:58:01.882Z,98879.59
2019-01-29T06:00:42.431Z,98878.23
2019-01-29T06:03:21.747Z,98887.92
2019-01-29T06:06:01.137Z,98886.50
2019-01-29T06:08:40.825Z,98893.70
2019-01-29T06:11:20.774Z,98903.67
2019-01-29T06:14:00.238Z,98901.02
2019-01-29T06:16:40.214Z,98899.41
2019-01-29T06:19:19.399Z,98903.16
2019-01-29T06:21:58.733Z,98911.16
2019-01-29T06:24:37.984Z,98916.07
2019-01-29T06:27:18.179Z,98917.55
2019-01-29T06:29:58.030Z,98920.61
2019-01-29T06:32:37.976Z,98923.31
2019-01-29T06:35:18.398Z,98922.64
2019-01-29T06:37:57.612Z,98929.78
2019-01-29T06:40:39.425Z,98931.09
2019-01-29T06:43:18.803Z,98933.36
2019-01-29T06:45:58.871Z,98936.34
2019-01-29T06:48:38.917Z,98942.20
2019-01-29T06:51:18.172Z,98948.08
2019-01-29T06:53:59.246Z,98951.55
2019-01-29T06:56:39.097Z,98954.19
2019-01-29T06:59:18.920Z,98963.02
2019-01-29T07:01:59.624Z,98961.91
2019-01-29T07:04:38.837Z,98961.14
2019-01-29T07:07:18.948Z,98969.00
2019-01-29T07:09:58.166Z,98968.86
2019-01-29T07:12:37.616Z,98979.16
2019-01-29T07:15:38.815Z,98979.80
2019-01-29T07:18:35.901Z,98985.07
2019-01-29T07:21:15.673Z,98988.95
2019-01-29T07:23:54.917Z,98986.70
2019-01-29T07:26:34.711Z,98990.70
2019-01-29T07:29:14.360Z,98991.34
2019-01-29T07:31:53.658Z,99002.92
2019-01-29T07:34:32.926Z,98998.48
2019-01-29T07:37:12.336Z,99006.82
2019-01-29T07:39:52.100Z,99004.87
2019-01-29T07:42:31.286Z,99010.31
2019-01-29T07:45:13.523Z,99004.77
2019-01-29T07:47:53.692Z,99012.91
2019-01-29T07:50:33.568Z,99015.48
2019-01-29T07:53:16.303Z,99019.17
2019-01-29T07:55:55.642Z,99029.09
2019-01-29T07:58:35.479Z,99028.72
2019-01-29T08:01:15.302Z,99032.00
2019-01-29T08:03:55.101Z,99034.81
2019-01-29T08:06:34.322Z,99045.31
2019-01-29T08:09:14.474Z,99046.30
2019-01-29T08:11:53.881Z,99045.72
2019-01-29T08:14:34.811Z,99054.30
2019-01-29T08:17:14.146Z,99059.55
2019-01-29T08:19:55.903Z,99051.38
2019-01-29T08:22:35.785Z,99058.41
2019-01-29T08:25:15.456Z,99063.02
2019-01-29T08:27:54.690Z,99064.10
2019-01-29T08:30:33.899Z,99063.13
2019-01-29T08:33:13.744Z,99069.34
2019-01-29T08:35:53.044Z,99071.96
2019-01-29T08:38:32.377Z,99069.41
2019-01-29T08:41:11.668Z,99076.59
2019-01-29T08:43:50.839Z,99079.25
2019-01-29T08:46:30.037Z,99079.47
2019-01-29T08:49:09.380Z,99085.28
2019-01-29T08:51:49.195Z,99088.25
2019-01-29T08:54:28.596Z,99089.45
2019-01-29T08:57:09.047Z,99085.81
2019-01-29T08:59:49.774Z,99086.48
2019-01-29T09:02:29.167Z,99090.45
2019-01-29T09:05:09.647Z,99087.56
2019-01-29T09:07:49.027Z,99092.77
2019-01-29T09:10:28.441Z,99095.77
2019-01-29T09:13:07.737Z,99103.52
2019-01-29T09:15:47.068Z,99103.32
2019-01-29T09:18:28.968Z,99106.64
2019-01-29T09:21:09.019Z,99104.27
2019-01-29T09:23:48.577Z,99109.89
2019-01-29T09:26:27.797Z,99110.30
2019-01-29T09:29:17.660Z,99100.92
2019-01-29T09:31:54.145Z,99106.34
2019-01-29T09:34:33.603Z,99111.11
2019-01-29T09:37:14.155Z,99104.25
2019-01-29T09:39:53.709Z,99113.59
2019-01-29T09:42:34.188Z,99118.27
2019-01-29T09:45:17.847Z,99111.34
2019-01-29T09:47:57.238Z,99115.56
2019-01-29T09:50:37.597Z,99130.66
2019-01-29T09:53:17.547Z,99126.84
2019-01-29T09:55:57.595Z,99128.49
2019-01-29T09:58:37.643Z,99128.52
2019-01-29T10:01:17.520Z,99127.16
2019-01-29T10:03:57.423Z,99124.63
2019-01-29T10:06:37.391Z,99124.66
2019-01-29T10:09:17.295Z,99122.56
2019-01-29T10:11:57.247Z,99121.95
2019-01-29T10:14:37.006Z,99124.22
2019-01-29T10:17:17.711Z,99117.12
2019-01-29T10:20:02.518Z,99115.70
2019-01-29T10:22:38.945Z,99112.17
2019-01-29T10:25:19.096Z,99121.77
2019-01-29T10:27:59.259Z,99116.60
2019-01-29T10:30:39.261Z,99122.41
2019-01-29T10:33:19.151Z,99118.64
2019-01-29T10:35:59.078Z,99110.28
2019-01-29T10:38:38.902Z,99117.33
2019-01-29T10:41:18.737Z,99117.63
2019-01-29T10:43:58.599Z,99106.94
2019-01-29T10:46:38.405Z,99109.81
2019-01-29T10:49:18.250Z,99100.30
2019-01-29T10:51:58.059Z,99099.94
2019-01-29T10:54:37.910Z,99106.44
2019-01-29T10:57:17.886Z,99107.27
2019-01-29T10:59:58.076Z,99102.86
2019-01-29T11:02:38.683Z,99106.09
2019-01-29T11:05:19.573Z,99103.66
2019-01-29T11:07:59.499Z,99107.06
2019-01-29T11:10:39.491Z,99097.62
2019-01-29T11:13:19.415Z,99097.30
2019-01-29T11:15:59.235Z,99092.95
2019-01-29T11:19:03.173Z,99094.54
2019-01-29T11:21:39.920Z,99097.39
2019-01-29T11:24:19.686Z,99094.70
2019-01-29T11:26:59.420Z,99096.24
2019-01-29T11:29:39.323Z,99087.92
2019-01-29T11:32:19.314Z,99085.27
2019-01-29T11:34:59.270Z,99085.98
2019-01-29T11:37:39.037Z,99090.46
2019-01-29T11:40:22.270Z,99088.41
2019-01-29T11:43:02.662Z,99087.70
2019-01-29T11:45:46.928Z,99083.48
2019-01-29T11:48:26.843Z,99088.59
2019-01-29T11:51:06.781Z,99091.61
2019-01-29T11:53:48.518Z,99099.51
2019-01-29T11:56:28.526Z,99095.14
2019-01-29T11:59:08.497Z,99095.92
2019-01-29T12:01:50.122Z,99097.78
2019-01-29T12:04:30.019Z,99095.84
2019-01-29T12:07:09.979Z,99094.42
2019-01-29T12:09:49.741Z,99099.97
2019-01-29T12:12:29.678Z,99104.59
2019-01-29T12:15:12.291Z,99095.83
2019-01-29T12:17:52.303Z,99098.01
2019-01-29T12:20:32.394Z,99100.95
2019-01-29T12:23:12.347Z,99099.85
2019-01-29T12:25:55.011Z,99095.48
2019-01-29T12:28:34.772Z,99110.37
2019-01-29T12:31:14.619Z,99099.88
2019-01-29T12:33:54.492Z,99099.13
2019-01-29T12:36:34.311Z,99098.69
2019-01-29T12:39:14.078Z,99092.09
2019-01-29T12:41:53.863Z,99090.05
2019-01-29T12:44:33.676Z,99100.95
2019-01-29T12:47:13.539Z,99097.48
2019-01-29T12:49:53.284Z,99088.34
2019-01-29T12:52:51.586Z,99093.06
2019-01-29T12:55:33.596Z,99092.41
2019-01-29T12:58:13.721Z,99084.58
2019-01-29T13:00:56.109Z,99089.02
2019-01-29T13:03:36.057Z,99089.06
2019-01-29T13:06:15.957Z,99088.79
2019-01-29T13:08:55.825Z,99087.08
2019-01-29T13:11:35.854Z,99088.66
2019-01-29T13:14:16.851Z,99082.34
2019-01-29T13:16:56.658Z,99082.85
2019-01-29T13:19:36.323Z,99086.53
2019-01-29T13:22:16.210Z,99087.61
2019-01-29T13:24:55.947Z,99090.03
2019-01-29T13:27:35.791Z,99093.19
2019-01-29T13:30:21.505Z,99090.14
2019-01-29T13:33:01.439Z,99090.09
2019-01-29T13:35:41.736Z,99088.97
2019-01-29T13:38:21.481Z,99083.06
2019-01-29T13:41:01.362Z,99086.67
2019-01-29T13:43:41.207Z,99085.48
2019-01-29T13:46:21.345Z,99082.13
2019-01-29T13:49:01.180Z,99081.03
2019-01-29T13:51:41.140Z,99084.45
2019-01-29T13:54:20.858Z,99079.09
2019-01-29T13:57:00.727Z,99082.04
2019-01-29T13:59:40.967Z,99080.65
2019-01-29T14:02:20.753Z,99082.71
2019-01-29T14:05:01.572Z,99080.60
2019-01-29T14:07:41.370Z,99077.41
2019-01-29T14:10:21.323Z,99082.09
2019-01-29T14:13:01.221Z,99084.08
2019-01-29T14:15:44.321Z,99079.20
2019-01-29T14:18:26.930Z,99081.44
2019-01-29T14:21:10.563Z,99085.46
2019-01-29T14:23:50.351Z,99076.59
2019-01-29T14:26:30.215Z,99080.69
2019-01-29T14:29:10.128Z,99080.38
2019-01-29T14:31:50.135Z,99080.06
2019-01-29T14:34:30.867Z,99078.41
2019-01-29T14:37:12.358Z,99079.61
2019-01-29T14:40:19.904Z,99076.28
2019-01-29T14:42:59.792Z,99077.78
2019-01-29T14:45:40.165Z,99075.88
2019-01-29T14:48:20.097Z,99069.23
2019-01-29T14:51:00.236Z,99066.99
2019-01-29T14:53:40.473Z,99067.54
2019-01-29T14:56:20.452Z,99064.76
2019-01-29T14:58:59.931Z,99066.48
2019-01-29T15:01:41.318Z,99063.82
2019-01-29T15:04:21.227Z,99063.38
2019-01-29T15:07:01.027Z,99067.44
2019-01-29T15:09:40.915Z,99063.23
2019-01-29T15:12:21.071Z,99062.64
2019-01-29T15:15:00.853Z,99064.98
2019-01-29T15:17:50.326Z,99064.52
2019-01-29T15:20:30.676Z,99064.84
2019-01-29T15:23:10.805Z,99063.64
2019-01-29T15:25:50.863Z,99063.77
2019-01-29T15:28:30.761Z,99062.45
2019-01-29T15:31:12.152Z,99066.05
2019-01-29T15:33:52.045Z,99066.52
2019-01-29T15:36:31.926Z,99068.00
2019-01-29T15:39:11.870Z,99069.33
2019-01-29T15:41:51.756Z,99073.35
2019-01-29T15:44:31.020Z,99071.86
2019-01-29T15:47:11.662Z,99064.95
2019-01-29T15:49:52.559Z,99065.38
2019-01-29T15:52:34.414Z,99067.52
2019-01-29T15:55:15.608Z,99056.95
2019-01-29T15:57:55.448Z,99060.96
2019-01-29T16:00:35.704Z,99059.36
2019-01-29T16:03:14.971Z,99061.74
2019-01-29T16:05:54.131Z,99058.39
2019-01-29T16:08:34.067Z,99059.39
2019-01-29T16:11:13.352Z,99063.20
2019-01-29T16:13:52.524Z,99064.18
2019-01-29T16:16:32.340Z,99062.91
2019-01-29T16:19:11.785Z,99065.13
2019-01-29T16:21:52.127Z,99065.89
2019-01-29T16:24:31.961Z,99072.63
2019-01-29T16:27:11.196Z,99068.72
2019-01-29T16:29:53.230Z,99069.02
2019-01-29T16:32:34.405Z,99071.37
2019-01-29T16:35:16.713Z,99075.45
2019-01-29T16:37:55.985Z,99074.45
2019-01-29T16:40:37.033Z,99075.86
2019-01-29T16:43:17.368Z,99074.66
2019-01-29T16:45:57.143Z,99072.68
2019-01-29T16:48:36.430Z,99074.77
2019-01-29T16:51:15.822Z,99071.53
2019-01-29T16:53:55.666Z,99068.65
2019-01-29T16:56:35.185Z,99073.13
2019-01-29T16:59:14.464Z,99076.59
2019-01-29T17:02:06.508Z,99079.49
2019-01-29T17:04:46.119Z,99077.05
2019-01-29T17:07:25.253Z,99075.35
2019-01-29T17:10:07.170Z,99081.19
2019-01-29T17:12:47.138Z,99081.95
2019-01-29T17:15:29.292Z,99082.89
2019-01-29T17:18:09.832Z,99081.57
2019-01-29T17:20:49.092Z,99076.08
2019-01-29T17:23:29.022Z,99073.09
2019-01-29T17:26:08.583Z,99072.97
2019-01-29T17:28:48.492Z,99074.07
2019-01-29T17:31:27.724Z,99069.63
2019-01-29T17:34:07.060Z,99078.37
2019-01-29T17:36:47.152Z,99079.33
2019-01-29T17:39:26.467Z,99076.39
2019-01-29T17:42:06.142Z,99075.77
2019-01-29T17:44:46.203Z,99073.19
2019-01-29T17:47:26.029Z,99074.56
2019-01-29T17:50:11.187Z,99069.58
2019-01-29T17:52:50.910Z,99059.52
2019-01-29T17:55:32.394Z,99058.98
2019-01-29T17:58:13.837Z,99062.14
2019-01-29T18:00:59.643Z,99053.19
2019-01-29T18:03:39.491Z,99054.28
2019-01-29T18:06:18.995Z,99051.42
2019-01-29T18:08:58.410Z,99052.89
2019-01-29T18:11:38.748Z,99055.87
2019-01-29T18:14:18.743Z,99051.89
2019-01-29T18:16:58.520Z,99059.98
2019-01-29T18:19:38.451Z,99055.56
2019-01-29T18:22:18.250Z,99048.78
2019-01-29T18:24:58.218Z,99058.97
2019-01-29T18:27:39.563Z,99058.92
2019-01-29T18:30:26.357Z,99057.28
2019-01-29T18:33:05.837Z,99059.77
2019-01-29T18:35:53.609Z,99052.88
2019-01-29T18:38:35.753Z,99054.63
2019-01-29T18:41:15.183Z,99057.80
2019-01-29T18:43:54.730Z,99053.67
2019-01-29T18:46:34.867Z,99054.05
2019-01-29T18:49:15.144Z,99053.13
2019-01-29T18:51:57.323Z,99054.77
2019-01-29T18:54:36.778Z,99054.48
2019-01-29T18:57:16.216Z,99053.67
2019-01-29T18:59:57.905Z,99048.61
2019-01-29T19:02:38.169Z,99050.28
2019-01-29T19:05:20.344Z,99053.55
2019-01-29T19:08:01.154Z,99055.58
2019-01-29T19:10:40.938Z,99052.33
2019-01-29T19:13:20.756Z,99045.73
2019-01-29T19:16:00.107Z,99043.14
2019-01-29T19:18:40.155Z,99041.88
2019-01-29T19:21:20.055Z,99036.40
2019-01-29T19:24:00.151Z,99034.33
2019-01-29T19:26:40.192Z,99034.78
2019-01-29T19:29:20.443Z,99025.86
2019-01-29T19:32:00.368Z,99028.00
2019-01-29T19:34:40.979Z,99028.75
2019-01-29T19:37:21.059Z,99028.25
2019-01-29T19:40:01.146Z,99025.20
2019-01-29T19:42:41.824Z,99022.25
2019-01-29T19:45:26.647Z,99018.27
2019-01-29T19:48:08.697Z,99022.61
2019-01-29T19:50:50.017Z,99019.38
2019-01-29T19:53:31.258Z,99015.23
2019-01-29T19:56:14.161Z,99009.22
2019-01-29T19:58:53.906Z,99011.13
2019-01-29T20:01:33.431Z,99010.27
2019-01-29T20:04:13.341Z,99009.55
2019-01-29T20:06:53.353Z,99013.55
2019-01-29T20:09:33.677Z,99015.60
2019-01-29T20:12:15.304Z,99010.38
2019-01-29T20:14:56.068Z,99013.89
2019-01-29T20:17:36.409Z,99004.43
2019-01-29T20:20:23.027Z,99001.83
2019-01-29T20:23:08.108Z,99001.14
2019-01-29T20:25:44.479Z,99002.11
2019-01-29T20:28:24.413Z,99001.54
2019-01-29T20:31:04.029Z,99003.30
2019-01-29T20:33:43.856Z,98997.37
2019-01-29T20:36:23.033Z,98996.08
2019-01-29T20:39:02.270Z,98994.43
2019-01-29T20:41:42.647Z,98995.87
2019-01-29T20:44:23.063Z,98989.43
2019-01-29T20:47:02.295Z,98991.28
2019-01-29T20:49:41.629Z,98984.23
2019-01-29T20:52:24.099Z,98983.64
2019-01-29T20:55:03.436Z,98979.34
2019-01-29T20:57:43.012Z,98975.34
2019-01-29T21:00:29.320Z,98967.45
2019-01-29T21:03:09.698Z,98971.16
2019-01-29T21:05:49.553Z,98968.73
2019-01-29T21:08:32.145Z,98963.29
2019-01-29T21:11:11.705Z,98962.05
2019-01-29T21:13:51.238Z,98962.07
2019-01-29T21:16:30.659Z,98954.53
2019-01-29T21:19:09.781Z,98944.80
2019-01-29T21:21:49.194Z,98946.12
2019-01-29T21:24:28.467Z,98940.38
2019-01-29T21:27:07.873Z,98939.33
2019-01-29T21:29:47.064Z,98940.31
2019-01-29T21:32:26.767Z,98941.59
2019-01-29T21:35:07.227Z,98938.20
2019-01-29T21:37:46.483Z,98932.08
2019-01-29T21:40:26.122Z,98934.27
2019-01-29T21:43:05.487Z,98930.29
2019-01-29T21:45:44.739Z,98927.83
2019-01-29T21:48:24.049Z,98932.67
2019-01-29T21:51:03.856Z,98932.03
2019-01-29T21:53:43.020Z,98920.52
2019-01-29T21:56:22.270Z,98927.55
2019-01-29T21:59:01.636Z,98924.89
2019-01-29T22:01:42.540Z,98921.95
2019-01-29T22:04:21.993Z,98917.84
2019-01-29T22:07:02.530Z,98921.73
2019-01-29T22:09:43.737Z,98916.84
2019-01-29T22:12:25.259Z,98915.12
2019-01-29T22:15:06.229Z,98911.98
2019-01-29T22:17:45.947Z,98910.57
2019-01-29T22:20:25.411Z,98906.13
2019-01-29T22:23:04.753Z,98909.00
2019-01-29T22:25:44.082Z,98895.72
2019-01-29T22:28:23.205Z,98903.76
2019-01-29T22:31:02.298Z,98904.55
2019-01-29T22:33:41.431Z,98902.77
2019-01-29T22:36:20.636Z,98900.91
2019-01-29T22:38:59.819Z,98896.19
2019-01-29T22:41:39.019Z,98894.90
2019-01-29T22:44:18.184Z,98891.81
2019-01-29T22:46:59.726Z,98898.78
2019-01-29T22:49:39.003Z,98891.45
2019-01-29T22:52:18.192Z,98887.58
2019-01-29T22:54:57.773Z,98888.78
2019-01-29T22:57:36.996Z,98885.66
2019-01-29T23:01:02.816Z,98881.61
2019-01-29T23:03:46.188Z,98878.19
2019-01-29T23:07:08.315Z,98874.73
2019-01-29T23:09:47.506Z,98867.14
2019-01-29T23:12:28.215Z,98868.80
2019-01-29T23:15:10.110Z,98874.36
2019-01-29T23:17:49.444Z,98871.45
2019-01-29T23:20:29.023Z,98867.42
2019-01-29T23:23:08.289Z,98865.84
2019-01-29T23:25:47.457Z,98863.09
2019-01-29T23:28:30.254Z,98871.44
2019-01-29T23:31:09.162Z,98863.86
2019-01-29T23:33:48.284Z,98862.34
2019-01-29T23:36:27.670Z,98865.47
2019-01-29T23:39:09.865Z,98853.84
2019-01-29T23:41:49.055Z,98853.60
2019-01-29T23:44:28.127Z,98849.04
2019-01-29T23:47:07.300Z,98846.50
2019-01-29T23:49:46.531Z,98845.27
2019-01-29T23:52:25.702Z,98841.61
2019-01-29T23:55:06.657Z,98844.75
2019-01-29T23:57:47.374Z,98844.44
